Welcome to Des Moines Iowa Weather. I am an independent private personal weather station on the Northwest Side of Des Moines, Iowa. Just East of Windsor Heights and just West of Glendale . This site is also mobile friendly.

There are no active watches, warnings or advisories


Visit our other weather sites:

Historical Data

Weather Station Setup



Weather Underground History page Text

Daily Summary for February 22, 2018 Units:  Both    English   Metric
« Previous Day
Next Day »
Daily Weekly Monthly Yearly Custom
  High: Low: Average:
Temperature: 32.7 °F /  0.4 °C 23.4 °F /  -4.8 °C 29.9 °F /  -1.2 °C
Dew Point: 32.0 °F /  0 °C 18.0 °F /  -7.8 °C 27.7 °F /  -2.4 °C
Humidity: 96 % 77 % 91 %
Wind Speed: 6.0 mph /  9.7 km/h - 1.6 mph /  2.6 km/h
Wind Gust: 12.0 mph /  19.3 km/h - -
Wind:- - ESE
Pressure: 30.60 in /  1036.1 hPa 30.19 in /  1022.2 hPa -
Precipitation: 0.00 in /  0 mm    
Historical Graphs
 
 
Tabular Data for February 22, 2018
Time Temperature Dew Point Pressure Wind Wind Speed Wind Gust Humidity Rainfall Rate (Hourly)
00:09 23.4 °F /  -4.8 °C 18.0 °F /  -7.8 °C 30.59 in /  1035.8 hPa ENE 5.0 mph /  8 km/h 5.0 mph /  8 km/h 78 % 0.00 in /  0 mm
00:24 23.5 °F /  -4.7 °C 18.0 °F /  -7.8 °C 30.59 in /  1035.8 hPa ENE 1.0 mph /  1.6 km/h 5.0 mph /  8 km/h 78 % 0.00 in /  0 mm
00:39 23.5 °F /  -4.7 °C 18.0 °F /  -7.8 °C 30.59 in /  1035.8 hPa ENE 3.0 mph /  4.8 km/h 6.0 mph /  9.7 km/h 78 % 0.00 in /  0 mm
00:54 23.6 °F /  -4.7 °C 18.0 °F /  -7.8 °C 30.59 in /  1035.8 hPa ENE 2.0 mph /  3.2 km/h 4.0 mph /  6.4 km/h 78 % 0.00 in /  0 mm
01:09 23.7 °F /  -4.6 °C 18.0 °F /  -7.8 °C 30.59 in /  1035.8 hPa NNE 3.0 mph /  4.8 km/h 5.0 mph /  8 km/h 78 % 0.00 in /  0 mm
01:24 23.8 °F /  -4.6 °C 18.0 °F /  -7.8 °C 30.58 in /  1035.4 hPa East 3.0 mph /  4.8 km/h 4.0 mph /  6.4 km/h 77 % 0.00 in /  0 mm
01:39 23.9 °F /  -4.5 °C 18.0 °F /  -7.8 °C 30.59 in /  1035.8 hPa ENE 1.0 mph /  1.6 km/h 3.0 mph /  4.8 km/h 77 % 0.00 in /  0 mm
01:54 24.0 °F /  -4.4 °C 18.0 °F /  -7.8 °C 30.58 in /  1035.4 hPa Calm   4.0 mph /  6.4 km/h 77 % 0.00 in /  0 mm
02:09 24.1 °F /  -4.4 °C 18.0 °F /  -7.8 °C 30.58 in /  1035.4 hPa Calm   3.0 mph /  4.8 km/h 77 % 0.00 in /  0 mm
02:24 24.1 °F /  -4.4 °C 18.0 °F /  -7.8 °C 30.59 in /  1035.8 hPa ENE 1.0 mph /  1.6 km/h 3.0 mph /  4.8 km/h 77 % 0.00 in /  0 mm
02:39 24.1 °F /  -4.4 °C 18.0 °F /  -7.8 °C 30.60 in /  1036.1 hPa NE 2.0 mph /  3.2 km/h 2.0 mph /  3.2 km/h 77 % 0.00 in /  0 mm
02:54 24.2 °F /  -4.3 °C 18.0 °F /  -7.8 °C 30.58 in /  1035.4 hPa Calm   2.0 mph /  3.2 km/h 77 % 0.00 in /  0 mm
03:09 24.2 °F /  -4.3 °C 18.0 °F /  -7.8 °C 30.56 in /  1034.8 hPa NE 1.0 mph /  1.6 km/h 4.0 mph /  6.4 km/h 78 % 0.00 in /  0 mm
03:25 24.2 °F /  -4.3 °C 18.0 °F /  -7.8 °C 30.57 in /  1035.1 hPa Calm   3.0 mph /  4.8 km/h 78 % 0.00 in /  0 mm
03:39 24.2 °F /  -4.3 °C 18.0 °F /  -7.8 °C 30.54 in /  1034.1 hPa ENE 5.0 mph /  8 km/h 6.0 mph /  9.7 km/h 78 % 0.00 in /  0 mm
03:54 24.3 °F /  -4.3 °C 19.0 °F /  -7.2 °C 30.54 in /  1034.1 hPa NNE 3.0 mph /  4.8 km/h 8.0 mph /  12.9 km/h 79 % 0.00 in /  0 mm
04:09 24.3 °F /  -4.3 °C 19.0 °F /  -7.2 °C 30.52 in /  1033.4 hPa ENE 3.0 mph /  4.8 km/h 8.0 mph /  12.9 km/h 79 % 0.00 in /  0 mm
04:24 24.3 °F /  -4.3 °C 19.0 °F /  -7.2 °C 30.52 in /  1033.4 hPa ENE 3.0 mph /  4.8 km/h 6.0 mph /  9.7 km/h 79 % 0.00 in /  0 mm
04:39 24.3 °F /  -4.3 °C 19.0 °F /  -7.2 °C 30.51 in /  1033.1 hPa ENE 2.0 mph /  3.2 km/h 5.0 mph /  8 km/h 79 % 0.00 in /  0 mm
04:55 24.3 °F /  -4.3 °C 19.0 °F /  -7.2 °C 30.54 in /  1034.1 hPa NNE 1.0 mph /  1.6 km/h 4.0 mph /  6.4 km/h 79 % 0.00 in /  0 mm
05:09 24.4 °F /  -4.2 °C 19.0 °F /  -7.2 °C 30.55 in /  1034.4 hPa Calm   4.0 mph /  6.4 km/h 79 % 0.00 in /  0 mm
05:25 24.4 °F /  -4.2 °C 19.0 °F /  -7.2 °C 30.56 in /  1034.8 hPa Calm   3.0 mph /  4.8 km/h 79 % 0.00 in /  0 mm
05:40 24.6 °F /  -4.1 °C 19.0 °F /  -7.2 °C 30.55 in /  1034.4 hPa NNE 4.0 mph /  6.4 km/h 5.0 mph /  8 km/h 79 % 0.00 in /  0 mm
05:55 24.5 °F /  -4.2 °C 19.0 °F /  -7.2 °C 30.56 in /  1034.8 hPa NNE 1.0 mph /  1.6 km/h 5.0 mph /  8 km/h 80 % 0.00 in /  0 mm
06:10 24.5 °F /  -4.2 °C 19.0 °F /  -7.2 °C 30.54 in /  1034.1 hPa ENE 2.0 mph /  3.2 km/h 4.0 mph /  6.4 km/h 80 % 0.00 in /  0 mm
06:25 24.5 °F /  -4.2 °C 19.0 °F /  -7.2 °C 30.53 in /  1033.7 hPa ENE 2.0 mph /  3.2 km/h 6.0 mph /  9.7 km/h 80 % 0.00 in /  0 mm
06:40 24.5 °F /  -4.2 °C 19.0 °F /  -7.2 °C 30.53 in /  1033.7 hPa NE 1.0 mph /  1.6 km/h 6.0 mph /  9.7 km/h 80 % 0.00 in /  0 mm
06:55 24.5 °F /  -4.2 °C 19.0 °F /  -7.2 °C 30.53 in /  1033.7 hPa East 2.0 mph /  3.2 km/h 6.0 mph /  9.7 km/h 80 % 0.00 in /  0 mm
07:10 24.6 °F /  -4.1 °C 19.0 °F /  -7.2 °C 30.52 in /  1033.4 hPa East 1.0 mph /  1.6 km/h 9.0 mph /  14.5 km/h 80 % 0.00 in /  0 mm
07:25 24.5 °F /  -4.2 °C 20.0 °F /  -6.7 °C 30.52 in /  1033.4 hPa ENE 1.0 mph /  1.6 km/h 6.0 mph /  9.7 km/h 82 % 0.00 in /  0 mm
07:40 24.5 °F /  -4.2 °C 20.0 °F /  -6.7 °C 30.52 in /  1033.4 hPa NE 2.0 mph /  3.2 km/h 4.0 mph /  6.4 km/h 82 % 0.00 in /  0 mm
07:55 24.7 °F /  -4.1 °C 20.0 °F /  -6.7 °C 30.52 in /  1033.4 hPa ENE 2.0 mph /  3.2 km/h 7.0 mph /  11.3 km/h 82 % 0.00 in /  0 mm
08:10 25.1 °F /  -3.8 °C 20.0 °F /  -6.7 °C 30.52 in /  1033.4 hPa ENE 1.0 mph /  1.6 km/h 5.0 mph /  8 km/h 81 % 0.00 in /  0 mm
08:25 25.3 °F /  -3.7 °C 20.0 °F /  -6.7 °C 30.51 in /  1033.1 hPa ENE 3.0 mph /  4.8 km/h 8.0 mph /  12.9 km/h 80 % 0.00 in /  0 mm
08:40 25.1 °F /  -3.8 °C 21.0 °F /  -6.1 °C 30.49 in /  1032.4 hPa ENE 3.0 mph /  4.8 km/h 9.0 mph /  14.5 km/h 83 % 0.00 in /  0 mm
08:55 25.1 °F /  -3.8 °C 22.0 °F /  -5.6 °C 30.49 in /  1032.4 hPa ENE 2.0 mph /  3.2 km/h 9.0 mph /  14.5 km/h 86 % 0.00 in /  0 mm
09:10 25.2 °F /  -3.8 °C 22.0 °F /  -5.6 °C 30.49 in /  1032.4 hPa ESE 1.0 mph /  1.6 km/h 9.0 mph /  14.5 km/h 87 % 0.00 in /  0 mm
09:25 25.4 °F /  -3.7 °C 22.0 °F /  -5.6 °C 30.49 in /  1032.4 hPa ENE 1.0 mph /  1.6 km/h 6.0 mph /  9.7 km/h 87 % 0.00 in /  0 mm
09:40 25.6 °F /  -3.6 °C 22.0 °F /  -5.6 °C 30.49 in /  1032.4 hPa SSE 2.0 mph /  3.2 km/h 7.0 mph /  11.3 km/h 87 % 0.00 in /  0 mm
09:55 26.0 °F /  -3.3 °C 23.0 °F /  -5 °C 30.49 in /  1032.4 hPa ENE 5.0 mph /  8 km/h 9.0 mph /  14.5 km/h 87 % 0.00 in /  0 mm
10:10 26.2 °F /  -3.2 °C 23.0 °F /  -5 °C 30.48 in /  1032.1 hPa Calm   8.0 mph /  12.9 km/h 87 % 0.00 in /  0 mm
10:25 26.6 °F /  -3 °C 23.0 °F /  -5 °C 30.47 in /  1031.7 hPa East 1.0 mph /  1.6 km/h 6.0 mph /  9.7 km/h 87 % 0.00 in /  0 mm
10:40 27.0 °F /  -2.8 °C 24.0 °F /  -4.4 °C 30.46 in /  1031.4 hPa NNE 1.0 mph /  1.6 km/h 6.0 mph /  9.7 km/h 88 % 0.00 in /  0 mm
10:55 27.0 °F /  -2.8 °C 24.0 °F /  -4.4 °C 30.46 in /  1031.4 hPa Calm   6.0 mph /  9.7 km/h 88 % 0.00 in /  0 mm
11:10 27.4 °F /  -2.6 °C 25.0 °F /  -3.9 °C 30.46 in /  1031.4 hPa South 5.0 mph /  8 km/h 7.0 mph /  11.3 km/h 89 % 0.00 in /  0 mm
11:25 27.3 °F /  -2.6 °C 25.0 °F /  -3.9 °C 30.47 in /  1031.7 hPa SSE 1.0 mph /  1.6 km/h 8.0 mph /  12.9 km/h 89 % 0.00 in /  0 mm
11:40 27.7 °F /  -2.4 °C 25.0 °F /  -3.9 °C 30.45 in /  1031 hPa SSE 2.0 mph /  3.2 km/h 7.0 mph /  11.3 km/h 90 % 0.00 in /  0 mm
11:55 28.1 °F /  -2.2 °C 26.0 °F /  -3.3 °C 30.44 in /  1030.7 hPa ENE 2.0 mph /  3.2 km/h 7.0 mph /  11.3 km/h 90 % 0.00 in /  0 mm
12:10 28.4 °F /  -2 °C 26.0 °F /  -3.3 °C 30.43 in /  1030.4 hPa ESE 2.0 mph /  3.2 km/h 6.0 mph /  9.7 km/h 90 % 0.00 in /  0 mm
12:25 28.5 °F /  -1.9 °C 26.0 °F /  -3.3 °C 30.42 in /  1030 hPa SSE 2.0 mph /  3.2 km/h 7.0 mph /  11.3 km/h 90 % 0.00 in /  0 mm
12:40 28.8 °F /  -1.8 °C 26.0 °F /  -3.3 °C 30.40 in /  1029.3 hPa ESE 1.0 mph /  1.6 km/h 6.0 mph /  9.7 km/h 90 % 0.00 in /  0 mm
12:55 29.2 °F /  -1.6 °C 27.0 °F /  -2.8 °C 30.40 in /  1029.3 hPa SE 1.0 mph /  1.6 km/h 5.0 mph /  8 km/h 91 % 0.00 in /  0 mm
13:11 29.6 °F /  -1.3 °C 27.0 °F /  -2.8 °C 30.39 in /  1029 hPa SSE 2.0 mph /  3.2 km/h 7.0 mph /  11.3 km/h 91 % 0.00 in /  0 mm
13:26 29.8 °F /  -1.2 °C 28.0 °F /  -2.2 °C 30.39 in /  1029 hPa SSE 1.0 mph /  1.6 km/h 6.0 mph /  9.7 km/h 92 % 0.00 in /  0 mm
13:41 29.9 °F /  -1.2 °C 28.0 °F /  -2.2 °C 30.40 in /  1029.3 hPa SSE 1.0 mph /  1.6 km/h 7.0 mph /  11.3 km/h 92 % 0.00 in /  0 mm
13:56 29.9 °F /  -1.2 °C 28.0 °F /  -2.2 °C 30.39 in /  1029 hPa SE 1.0 mph /  1.6 km/h 5.0 mph /  8 km/h 92 % 0.00 in /  0 mm
14:11 30.2 °F /  -1 °C 28.0 °F /  -2.2 °C 30.38 in /  1028.7 hPa SE 2.0 mph /  3.2 km/h 4.0 mph /  6.4 km/h 92 % 0.00 in /  0 mm
14:26 30.4 °F /  -0.9 °C 29.0 °F /  -1.7 °C 30.39 in /  1029 hPa Calm   3.0 mph /  4.8 km/h 93 % 0.00 in /  0 mm
14:41 30.6 °F /  -0.8 °C 29.0 °F /  -1.7 °C 30.38 in /  1028.7 hPa Calm   2.0 mph /  3.2 km/h 93 % 0.00 in /  0 mm
15:00 30.7 °F /  -0.7 °C 29.0 °F /  -1.7 °C 30.37 in /  1028.3 hPa SE 1.0 mph /  1.6 km/h 3.0 mph /  4.8 km/h 93 % 0.00 in /  0 mm
15:12 30.8 °F /  -0.7 °C 29.0 °F /  -1.7 °C 30.36 in /  1028 hPa ENE 1.0 mph /  1.6 km/h 4.0 mph /  6.4 km/h 93 % 0.00 in /  0 mm
15:26 31.1 °F /  -0.5 °C 29.0 °F /  -1.7 °C 30.34 in /  1027.3 hPa ENE 1.0 mph /  1.6 km/h 6.0 mph /  9.7 km/h 93 % 0.00 in /  0 mm
15:41 31.2 °F /  -0.4 °C 29.0 °F /  -1.7 °C 30.35 in /  1027.7 hPa Calm   5.0 mph /  8 km/h 93 % 0.00 in /  0 mm
15:56 31.4 °F /  -0.3 °C 30.0 °F /  -1.1 °C 30.33 in /  1027 hPa SE 1.0 mph /  1.6 km/h 4.0 mph /  6.4 km/h 93 % 0.00 in /  0 mm
16:11 31.4 °F /  -0.3 °C 30.0 °F /  -1.1 °C 30.32 in /  1026.6 hPa ENE 2.0 mph /  3.2 km/h 6.0 mph /  9.7 km/h 93 % 0.00 in /  0 mm
16:26 31.4 °F /  -0.3 °C 30.0 °F /  -1.1 °C 30.32 in /  1026.6 hPa NE 2.0 mph /  3.2 km/h 4.0 mph /  6.4 km/h 94 % 0.00 in /  0 mm
16:41 31.5 °F /  -0.3 °C 30.0 °F /  -1.1 °C 30.30 in /  1026 hPa Calm   4.0 mph /  6.4 km/h 94 % 0.00 in /  0 mm
16:56 31.5 °F /  -0.3 °C 30.0 °F /  -1.1 °C 30.29 in /  1025.6 hPa SSE 3.0 mph /  4.8 km/h 7.0 mph /  11.3 km/h 94 % 0.00 in /  0 mm
17:11 31.5 °F /  -0.3 °C 30.0 °F /  -1.1 °C 30.30 in /  1026 hPa SSE 4.0 mph /  6.4 km/h 6.0 mph /  9.7 km/h 94 % 0.00 in /  0 mm
17:20 31.5 °F /  -0.3 °C 30.0 °F /  -1.1 °C 30.30 in /  1026 hPa SSE 2.0 mph /  3.2 km/h 10.0 mph /  16.1 km/h 94 % 0.00 in /  0 mm
17:25 31.5 °F /  -0.3 °C 30.0 °F /  -1.1 °C 30.30 in /  1026 hPa SSE 2.0 mph /  3.2 km/h 10.0 mph /  16.1 km/h 94 % 0.00 in /  0 mm
17:26 31.4 °F /  -0.3 °C 30.0 °F /  -1.1 °C 30.27 in /  1024.9 hPa ENE 2.0 mph /  3.2 km/h 6.0 mph /  9.7 km/h 94 % 0.00 in /  0 mm
17:30 31.5 °F /  -0.3 °C 30.0 °F /  -1.1 °C 30.30 in /  1026 hPa SSE 2.0 mph /  3.2 km/h 10.0 mph /  16.1 km/h 94 % 0.00 in /  0 mm
17:35 31.4 °F /  -0.3 °C 29.9 °F /  -1.2 °C 30.27 in /  1024.9 hPa ENE 3.0 mph /  4.8 km/h 9.0 mph /  14.5 km/h 94 % 0.00 in /  0 mm
17:40 31.4 °F /  -0.3 °C 29.9 °F /  -1.2 °C 30.27 in /  1024.9 hPa ENE 3.0 mph /  4.8 km/h 9.0 mph /  14.5 km/h 94 % 0.00 in /  0 mm
17:41 31.4 °F /  -0.3 °C 30.0 °F /  -1.1 °C 30.26 in /  1024.6 hPa SSE 2.0 mph /  3.2 km/h 6.0 mph /  9.7 km/h 94 % 0.00 in /  0 mm
17:45 31.4 °F /  -0.3 °C 29.9 °F /  -1.2 °C 30.27 in /  1024.9 hPa ENE 3.0 mph /  4.8 km/h 9.0 mph /  14.5 km/h 94 % 0.00 in /  0 mm
17:50 31.4 °F /  -0.3 °C 29.9 °F /  -1.2 °C 30.26 in /  1024.6 hPa ENE 2.0 mph /  3.2 km/h 8.0 mph /  12.9 km/h 94 % 0.00 in /  0 mm
17:55 31.4 °F /  -0.3 °C 29.9 °F /  -1.2 °C 30.26 in /  1024.6 hPa ENE 2.0 mph /  3.2 km/h 8.0 mph /  12.9 km/h 94 % 0.00 in /  0 mm
17:56 31.5 °F /  -0.3 °C 30.0 °F /  -1.1 °C 30.26 in /  1024.6 hPa SSE 6.0 mph /  9.7 km/h 7.0 mph /  11.3 km/h 94 % 0.00 in /  0 mm
18:00 31.5 °F /  -0.3 °C 30.0 °F /  -1.1 °C 30.26 in /  1024.6 hPa South 2.0 mph /  3.2 km/h 8.0 mph /  12.9 km/h 94 % 0.00 in /  0 mm
18:05 31.5 °F /  -0.3 °C 30.0 °F /  -1.1 °C 30.26 in /  1024.6 hPa South 2.0 mph /  3.2 km/h 8.0 mph /  12.9 km/h 94 % 0.00 in /  0 mm
18:10 31.5 °F /  -0.3 °C 30.0 °F /  -1.1 °C 30.26 in /  1024.6 hPa South 2.0 mph /  3.2 km/h 8.0 mph /  12.9 km/h 94 % 0.00 in /  0 mm
18:11 31.6 °F /  -0.2 °C 30.0 °F /  -1.1 °C 30.26 in /  1024.6 hPa SE 3.0 mph /  4.8 km/h 10.0 mph /  16.1 km/h 94 % 0.00 in /  0 mm
18:15 31.6 °F /  -0.2 °C 30.1 °F /  -1.1 °C 30.25 in /  1024.3 hPa SE 4.0 mph /  6.4 km/h 12.0 mph /  19.3 km/h 94 % 0.00 in /  0 mm
18:20 31.6 °F /  -0.2 °C 30.1 °F /  -1.1 °C 30.25 in /  1024.3 hPa SE 4.0 mph /  6.4 km/h 12.0 mph /  19.3 km/h 94 % 0.00 in /  0 mm
18:25 31.6 °F /  -0.2 °C 30.1 °F /  -1.1 °C 30.25 in /  1024.3 hPa SE 4.0 mph /  6.4 km/h 12.0 mph /  19.3 km/h 94 % 0.00 in /  0 mm
18:26 31.6 °F /  -0.2 °C 30.0 °F /  -1.1 °C 30.25 in /  1024.3 hPa SSE 3.0 mph /  4.8 km/h 9.0 mph /  14.5 km/h 95 % 0.00 in /  0 mm
18:30 31.6 °F /  -0.2 °C 30.3 °F /  -0.9 °C 30.25 in /  1024.3 hPa ENE 3.0 mph /  4.8 km/h 12.0 mph /  19.3 km/h 95 % 0.00 in /  0 mm
18:35 31.6 °F /  -0.2 °C 30.3 °F /  -0.9 °C 30.25 in /  1024.3 hPa ENE 3.0 mph /  4.8 km/h 12.0 mph /  19.3 km/h 95 % 0.00 in /  0 mm
18:40 31.6 °F /  -0.2 °C 30.3 °F /  -0.9 °C 30.25 in /  1024.3 hPa ENE 3.0 mph /  4.8 km/h 12.0 mph /  19.3 km/h 95 % 0.00 in /  0 mm
18:41 31.7 °F /  -0.2 °C 31.0 °F /  -0.6 °C 30.23 in /  1023.6 hPa ESE 2.0 mph /  3.2 km/h 7.0 mph /  11.3 km/h 95 % 0.00 in /  0 mm
18:45 31.6 °F /  -0.2 °C 30.3 °F /  -0.9 °C 30.25 in /  1024.3 hPa ENE 3.0 mph /  4.8 km/h 12.0 mph /  19.3 km/h 95 % 0.00 in /  0 mm
18:50 31.7 °F /  -0.2 °C 30.4 °F /  -0.9 °C 30.23 in /  1023.6 hPa SE 3.0 mph /  4.8 km/h 10.0 mph /  16.1 km/h 95 % 0.00 in /  0 mm
18:55 31.7 °F /  -0.2 °C 30.4 °F /  -0.9 °C 30.23 in /  1023.6 hPa SE 3.0 mph /  4.8 km/h 10.0 mph /  16.1 km/h 95 % 0.00 in /  0 mm
18:56 31.8 °F /  -0.1 °C 31.0 °F /  -0.6 °C 30.23 in /  1023.6 hPa SSE 1.0 mph /  1.6 km/h 7.0 mph /  11.3 km/h 95 % 0.00 in /  0 mm
19:00 31.7 °F /  -0.2 °C 30.4 °F /  -0.9 °C 30.23 in /  1023.6 hPa SE 3.0 mph /  4.8 km/h 10.0 mph /  16.1 km/h 95 % 0.00 in /  0 mm
19:05 31.8 °F /  -0.1 °C 30.5 °F /  -0.8 °C 30.23 in /  1023.6 hPa SSE 3.0 mph /  4.8 km/h 8.0 mph /  12.9 km/h 95 % 0.00 in /  0 mm
19:10 31.8 °F /  -0.1 °C 30.5 °F /  -0.8 °C 30.23 in /  1023.6 hPa SSE 3.0 mph /  4.8 km/h 8.0 mph /  12.9 km/h 95 % 0.00 in /  0 mm
19:11 31.9 °F /  -0.1 °C 31.0 °F /  -0.6 °C 30.24 in /  1023.9 hPa South 1.0 mph /  1.6 km/h 6.0 mph /  9.7 km/h 95 % 0.00 in /  0 mm
19:15 31.8 °F /  -0.1 °C 30.5 °F /  -0.8 °C 30.23 in /  1023.6 hPa SSE 3.0 mph /  4.8 km/h 8.0 mph /  12.9 km/h 95 % 0.00 in /  0 mm
19:20 31.9 °F /  -0.1 °C 30.6 °F /  -0.8 °C 30.24 in /  1023.9 hPa SSE 2.0 mph /  3.2 km/h 6.0 mph /  9.7 km/h 95 % 0.00 in /  0 mm
19:25 31.9 °F /  -0.1 °C 30.6 °F /  -0.8 °C 30.24 in /  1023.9 hPa SSE 2.0 mph /  3.2 km/h 6.0 mph /  9.7 km/h 95 % 0.00 in /  0 mm
19:26 32.0 °F /  0 °C 31.0 °F /  -0.6 °C 30.25 in /  1024.3 hPa SE 3.0 mph /  4.8 km/h 4.0 mph /  6.4 km/h 95 % 0.00 in /  0 mm
19:30 32.0 °F /  0 °C 30.7 °F /  -0.7 °C 30.25 in /  1024.3 hPa ESE 2.0 mph /  3.2 km/h 7.0 mph /  11.3 km/h 95 % 0.00 in /  0 mm
19:35 32.0 °F /  0 °C 30.7 °F /  -0.7 °C 30.25 in /  1024.3 hPa ESE 2.0 mph /  3.2 km/h 7.0 mph /  11.3 km/h 95 % 0.00 in /  0 mm
19:40 32.0 °F /  0 °C 30.7 °F /  -0.7 °C 30.25 in /  1024.3 hPa ESE 2.0 mph /  3.2 km/h 7.0 mph /  11.3 km/h 95 % 0.00 in /  0 mm
19:41 32.0 °F /  0 °C 31.0 °F /  -0.6 °C 30.24 in /  1023.9 hPa South 2.0 mph /  3.2 km/h 8.0 mph /  12.9 km/h 95 % 0.00 in /  0 mm
19:45 32.1 °F /  0.1 °C 30.8 °F /  -0.7 °C 30.24 in /  1023.9 hPa SSE 3.0 mph /  4.8 km/h 9.0 mph /  14.5 km/h 95 % 0.00 in /  0 mm
19:50 32.1 °F /  0.1 °C 30.8 °F /  -0.7 °C 30.24 in /  1023.9 hPa SSE 3.0 mph /  4.8 km/h 9.0 mph /  14.5 km/h 95 % 0.00 in /  0 mm
19:55 32.1 °F /  0.1 °C 30.8 °F /  -0.7 °C 30.24 in /  1023.9 hPa SSE 3.0 mph /  4.8 km/h 9.0 mph /  14.5 km/h 95 % 0.00 in /  0 mm
19:56 32.2 °F /  0.1 °C 31.0 °F /  -0.6 °C 30.23 in /  1023.6 hPa SE 3.0 mph /  4.8 km/h 5.0 mph /  8 km/h 95 % 0.00 in /  0 mm
20:00 32.1 °F /  0.1 °C 30.8 °F /  -0.7 °C 30.23 in /  1023.6 hPa SE 2.0 mph /  3.2 km/h 6.0 mph /  9.7 km/h 95 % 0.00 in /  0 mm
20:05 32.1 °F /  0.1 °C 30.8 °F /  -0.7 °C 30.23 in /  1023.6 hPa SE 2.0 mph /  3.2 km/h 6.0 mph /  9.7 km/h 95 % 0.00 in /  0 mm
20:10 32.1 °F /  0.1 °C 30.8 °F /  -0.7 °C 30.23 in /  1023.6 hPa SE 2.0 mph /  3.2 km/h 6.0 mph /  9.7 km/h 95 % 0.00 in /  0 mm
20:11 32.2 °F /  0.1 °C 31.0 °F /  -0.6 °C 30.23 in /  1023.6 hPa South 3.0 mph /  4.8 km/h 7.0 mph /  11.3 km/h 95 % 0.00 in /  0 mm
20:15 32.2 °F /  0.1 °C 30.9 °F /  -0.6 °C 30.23 in /  1023.6 hPa South 2.0 mph /  3.2 km/h 8.0 mph /  12.9 km/h 95 % 0.00 in /  0 mm
20:20 32.2 °F /  0.1 °C 30.9 °F /  -0.6 °C 30.23 in /  1023.6 hPa South 2.0 mph /  3.2 km/h 8.0 mph /  12.9 km/h 95 % 0.00 in /  0 mm
20:25 32.2 °F /  0.1 °C 30.9 °F /  -0.6 °C 30.23 in /  1023.6 hPa South 2.0 mph /  3.2 km/h 8.0 mph /  12.9 km/h 95 % 0.00 in /  0 mm
20:26 32.3 °F /  0.2 °C 31.0 °F /  -0.6 °C 30.21 in /  1022.9 hPa Calm   6.0 mph /  9.7 km/h 95 % 0.00 in /  0 mm
20:30 32.2 °F /  0.1 °C 30.9 °F /  -0.6 °C 30.23 in /  1023.6 hPa South 2.0 mph /  3.2 km/h 8.0 mph /  12.9 km/h 95 % 0.00 in /  0 mm
20:35 32.3 °F /  0.2 °C 31.0 °F /  -0.6 °C 30.21 in /  1022.9 hPa SE 2.0 mph /  3.2 km/h 7.0 mph /  11.3 km/h 95 % 0.00 in /  0 mm
20:40 32.3 °F /  0.2 °C 31.0 °F /  -0.6 °C 30.21 in /  1022.9 hPa SE 2.0 mph /  3.2 km/h 7.0 mph /  11.3 km/h 95 % 0.00 in /  0 mm
20:41 32.4 °F /  0.2 °C 31.0 °F /  -0.6 °C 30.21 in /  1022.9 hPa East 1.0 mph /  1.6 km/h 6.0 mph /  9.7 km/h 96 % 0.00 in /  0 mm
20:45 32.3 °F /  0.2 °C 31.0 °F /  -0.6 °C 30.21 in /  1022.9 hPa SE 2.0 mph /  3.2 km/h 7.0 mph /  11.3 km/h 95 % 0.00 in /  0 mm
20:50 32.4 °F /  0.2 °C 31.4 °F /  -0.3 °C 30.20 in /  1022.6 hPa SSE 2.0 mph /  3.2 km/h 6.0 mph /  9.7 km/h 96 % 0.00 in /  0 mm
20:55 32.4 °F /  0.2 °C 31.4 °F /  -0.3 °C 30.20 in /  1022.6 hPa SSE 2.0 mph /  3.2 km/h 6.0 mph /  9.7 km/h 96 % 0.00 in /  0 mm
20:56 32.5 °F /  0.3 °C 32.0 °F /  0 °C 30.20 in /  1022.6 hPa SSE 1.0 mph /  1.6 km/h 9.0 mph /  14.5 km/h 96 % 0.00 in /  0 mm
21:00 32.4 °F /  0.2 °C 31.4 °F /  -0.3 °C 30.20 in /  1022.6 hPa SSE 2.0 mph /  3.2 km/h 6.0 mph /  9.7 km/h 96 % 0.00 in /  0 mm
21:05 32.5 °F /  0.3 °C 31.5 °F /  -0.3 °C 30.21 in /  1022.9 hPa ESE 2.0 mph /  3.2 km/h 10.0 mph /  16.1 km/h 96 % 0.00 in /  0 mm
21:10 32.5 °F /  0.3 °C 31.5 °F /  -0.3 °C 30.21 in /  1022.9 hPa ESE 2.0 mph /  3.2 km/h 10.0 mph /  16.1 km/h 96 % 0.00 in /  0 mm
21:11 32.6 °F /  0.3 °C 32.0 °F /  0 °C 30.20 in /  1022.6 hPa Calm   4.0 mph /  6.4 km/h 96 % 0.00 in /  0 mm
21:22 32.6 °F /  0.3 °C 31.6 °F /  -0.2 °C 30.19 in /  1022.2 hPa East 1.0 mph /  1.6 km/h   96 % 0.00 in /  0 mm
21:27 32.6 °F /  0.3 °C 31.6 °F /  -0.2 °C 30.20 in /  1022.6 hPa Calm   4.0 mph /  6.4 km/h 96 % 0.00 in /  0 mm
21:30 32.6 °F /  0.3 °C 31.6 °F /  -0.2 °C 30.20 in /  1022.6 hPa SE 2.0 mph /  3.2 km/h 2.0 mph /  3.2 km/h 96 % 0.00 in /  0 mm
21:35 32.6 °F /  0.3 °C 31.6 °F /  -0.2 °C 30.20 in /  1022.6 hPa South 2.0 mph /  3.2 km/h 8.0 mph /  12.9 km/h 96 % 0.00 in /  0 mm
21:40 32.6 °F /  0.3 °C 31.6 °F /  -0.2 °C 30.20 in /  1022.6 hPa South 2.0 mph /  3.2 km/h 8.0 mph /  12.9 km/h 96 % 0.00 in /  0 mm
21:42 32.6 °F /  0.3 °C 32.0 °F /  0 °C 30.21 in /  1022.9 hPa South 2.0 mph /  3.2 km/h 5.0 mph /  8 km/h 96 % 0.00 in /  0 mm
21:45 32.6 °F /  0.3 °C 31.6 °F /  -0.2 °C 30.20 in /  1022.6 hPa South 2.0 mph /  3.2 km/h 8.0 mph /  12.9 km/h 96 % 0.00 in /  0 mm
21:50 32.6 °F /  0.3 °C 31.6 °F /  -0.2 °C 30.21 in /  1022.9 hPa South 1.0 mph /  1.6 km/h 6.0 mph /  9.7 km/h 96 % 0.00 in /  0 mm
21:55 32.6 °F /  0.3 °C 31.6 °F /  -0.2 °C 30.21 in /  1022.9 hPa South 1.0 mph /  1.6 km/h 6.0 mph /  9.7 km/h 96 % 0.00 in /  0 mm
21:57 32.7 °F /  0.4 °C 32.0 °F /  0 °C 30.21 in /  1022.9 hPa Calm   2.0 mph /  3.2 km/h 96 % 0.00 in /  0 mm
22:00 32.6 °F /  0.3 °C 31.6 °F /  -0.2 °C 30.21 in /  1022.9 hPa South 1.0 mph /  1.6 km/h 6.0 mph /  9.7 km/h 96 % 0.00 in /  0 mm
22:05 32.6 °F /  0.3 °C 31.6 °F /  -0.2 °C 30.21 in /  1022.9 hPa Calm   3.0 mph /  4.8 km/h 96 % 0.00 in /  0 mm
22:10 32.6 °F /  0.3 °C 31.6 °F /  -0.2 °C 30.21 in /  1022.9 hPa Calm   3.0 mph /  4.8 km/h 96 % 0.00 in /  0 mm
22:12 32.7 °F /  0.4 °C 32.0 °F /  0 °C 30.20 in /  1022.6 hPa Calm   3.0 mph /  4.8 km/h 96 % 0.00 in /  0 mm
22:15 32.6 °F /  0.3 °C 31.6 °F /  -0.2 °C 30.21 in /  1022.9 hPa Calm   3.0 mph /  4.8 km/h 96 % 0.00 in /  0 mm
22:20 32.6 °F /  0.3 °C 31.6 °F /  -0.2 °C 30.20 in /  1022.6 hPa Calm   3.0 mph /  4.8 km/h 96 % 0.00 in /  0 mm
22:27 32.6 °F /  0.3 °C 32.0 °F /  0 °C 30.21 in /  1022.9 hPa Calm   3.0 mph /  4.8 km/h 96 % 0.00 in /  0 mm
22:30 32.6 °F /  0.3 °C 31.6 °F /  -0.2 °C 30.20 in /  1022.6 hPa Calm   3.0 mph /  4.8 km/h 96 % 0.00 in /  0 mm
22:35 32.6 °F /  0.3 °C 31.6 °F /  -0.2 °C 30.21 in /  1022.9 hPa Calm   3.0 mph /  4.8 km/h 96 % 0.00 in /  0 mm
22:40 32.6 °F /  0.3 °C 31.6 °F /  -0.2 °C 30.21 in /  1022.9 hPa Calm   3.0 mph /  4.8 km/h 96 % 0.00 in /  0 mm
22:42 32.6 °F /  0.3 °C 32.0 °F /  0 °C 30.20 in /  1022.6 hPa Calm     96 % 0.00 in /  0 mm
22:45 32.6 °F /  0.3 °C 31.6 °F /  -0.2 °C 30.21 in /  1022.9 hPa Calm   3.0 mph /  4.8 km/h 96 % 0.00 in /  0 mm
22:50 32.6 °F /  0.3 °C 31.6 °F /  -0.2 °C 30.21 in /  1022.9 hPa Calm   1.0 mph /  1.6 km/h 96 % 0.00 in /  0 mm
22:55 32.6 °F /  0.3 °C 31.6 °F /  -0.2 °C 30.21 in /  1022.9 hPa Calm   1.0 mph /  1.6 km/h 96 % 0.00 in /  0 mm
22:57 32.6 °F /  0.3 °C 32.0 °F /  0 °C 30.21 in /  1022.9 hPa Calm   2.0 mph /  3.2 km/h 96 % 0.00 in /  0 mm
23:00 32.6 °F /  0.3 °C 31.6 °F /  -0.2 °C 30.21 in /  1022.9 hPa Calm   1.0 mph /  1.6 km/h 96 % 0.00 in /  0 mm
23:05 32.6 °F /  0.3 °C 31.6 °F /  -0.2 °C 30.21 in /  1022.9 hPa Calm   2.0 mph /  3.2 km/h 96 % 0.00 in /  0 mm
23:10 32.6 °F /  0.3 °C 31.6 °F /  -0.2 °C 30.21 in /  1022.9 hPa Calm   2.0 mph /  3.2 km/h 96 % 0.00 in /  0 mm
23:12 32.6 °F /  0.3 °C 32.0 °F /  0 °C 30.21 in /  1022.9 hPa Calm     96 % 0.00 in /  0 mm
23:15 32.6 °F /  0.3 °C 31.6 °F /  -0.2 °C 30.21 in /  1022.9 hPa Calm   2.0 mph /  3.2 km/h 96 % 0.00 in /  0 mm
23:20 32.5 °F /  0.3 °C 31.5 °F /  -0.3 °C 30.21 in /  1022.9 hPa Calm   1.0 mph /  1.6 km/h 96 % 0.00 in /  0 mm
23:25 32.5 °F /  0.3 °C 31.5 °F /  -0.3 °C 30.21 in /  1022.9 hPa Calm   1.0 mph /  1.6 km/h 96 % 0.00 in /  0 mm
23:27 32.5 °F /  0.3 °C 32.0 °F /  0 °C 30.20 in /  1022.6 hPa Calm     96 % 0.00 in /  0 mm
23:30 32.5 °F /  0.3 °C 31.5 °F /  -0.3 °C 30.21 in /  1022.9 hPa Calm   1.0 mph /  1.6 km/h 96 % 0.00 in /  0 mm
23:35 32.5 °F /  0.3 °C 31.5 °F /  -0.3 °C 30.20 in /  1022.6 hPa Calm     96 % 0.00 in /  0 mm
23:40 32.5 °F /  0.3 °C 31.5 °F /  -0.3 °C 30.20 in /  1022.6 hPa Calm     96 % 0.00 in /  0 mm
23:42 32.5 °F /  0.3 °C 32.0 °F /  0 °C 30.20 in /  1022.6 hPa Calm     96 % 0.00 in /  0 mm
23:45 32.5 °F /  0.3 °C 31.5 °F /  -0.3 °C 30.20 in /  1022.6 hPa Calm     96 % 0.00 in /  0 mm
23:50 32.5 °F /  0.3 °C 31.5 °F /  -0.3 °C 30.19 in /  1022.2 hPa Calm     96 % 0.00 in /  0 mm
23:55 32.5 °F /  0.3 °C 31.5 °F /  -0.3 °C 30.19 in /  1022.2 hPa Calm     96 % 0.00 in /  0 mm
23:57 32.5 °F /  0.3 °C 32.0 °F /  0 °C 30.19 in /  1022.2 hPa Calm     96 % 0.00 in /  0 mm
Des Moines Weather and Climate
Compliments of Weather Underground - 3.5 mb

Script developed by  Jim McMurry - jmcmurry@mwt.net Adapted for the template by  Wim van der Kuil - Leuven-Template.eu

You find our weather info also at:

Weather Underground

Equipment we use:

Weather-station
Davis VP2 Plus

Weather-program
Davis Weatherlink.Com

Weather-server
iMac (Retina 4K, 21.5-inch, Late 2015)

Provider
Hostmonster.com

Davis VP2 Plus

Davis Weatherlink.Com

iMac (Retina 4K, 21.5-inch, Late 2015)

Hostmonster.com